Nearby METAR Reports

 

KCLM - Port Angeles, Washington, USA
Distance from station: W 17mi, 27km
Updated: Tue, 27-Jun-2017 2:53pm PDT
Clear
Clear
 Wind from NNE
Wind: NNE 6 mph , 9 km/h
Temperature: 61°F , 16°C
Dew Point: 54°F , 12°C
Humidity: 77%
Barometer: 30.03 inHg , 1016.9 hPa
Clouds: Clear
Visibility: 10 miles , 16 km
2017/06/27 21:53 KCLM 272153Z AUTO 02005KT 10SM CLR 16/12 A3003 RMK AO2 SLP170 T01610117
CWQK - Race Rocks Autob, British Columbia, Canada
Distance from station: NW 23mi, 36km
Updated: Tue, 27-Jun-2017 3:00pm PDT

 Wind from NNE
Wind: NNE 9 mph , 15 km/h
Temperature: 55°F , 13°C
Dew Point: 50°F , 10°C
Humidity: 82%
2017/06/27 22:00 CWQK 272200Z AUTO 02008KT 13/10 RMK AO1 SLP169 T01280095 58006
 
KNUW - Whidbey Is. Nas, Washington, USA
Distance from station: NE 28mi, 45km
Updated: Tue, 27-Jun-2017 2:56pm PDT
Mostly cloudy
Mostly cloudy
 Wind from NW
Wind: NW 8 mph , 13 km/h
Temperature: 64°F , 18°C
Dew Point: 48°F , 9°C
Humidity: 56%
Barometer: 30.06 inHg , 1017.9 hPa
Clouds: Mostly cloudy
Visibility: 10 miles , 16 km
Cloud details: Few Clouds 2900 ft
Partly cloudy 4000 ft
Mostly cloudy 25000 ft
2017/06/27 21:56 KNUW 272156Z 32007KT 10SM FEW029 SCT040 BKN250 18/09 A3006 RMK AO2 SLP178 T01780094 $
KFHR - Friday Harbor, Washington, USA
Distance from station: N 29mi, 46km
Updated: Tue, 27-Jun-2017 2:53pm PDT
Clear
Clear
 Wind from SE
Wind: SE 7 mph , 11 km/h
Temperature: 64°F , 18°C
Dew Point: 54°F , 12°C
Humidity: 68%
Barometer: 30.03 inHg , 1016.9 hPa
Clouds: Clear
Visibility: 10 miles , 16 km
2017/06/27 21:53 KFHR 272153Z AUTO 14006KT 10SM CLR 18/12 A3003 RMK AO2 SLP170 T01830122
 
KBVS - Burlington/Mt V, Washington, USA
Distance from station: NE 41mi, 66km
Updated: Tue, 27-Jun-2017 3:15pm PDT
Clear
Clear
 Wind from SSW
Wind: SSW 8 mph , 13 km/h
Temperature: 68°F , 20°C
Dew Point: 54°F , 12°C
Humidity: 60%
Barometer: 30.01 inHg , 1016.3 hPa
Clouds: Clear
Visibility: 8 miles , 13 km
2017/06/27 22:15 KBVS 272215Z AUTO 21007KT 8SM CLR 20/12 A3001 RMK A01
KPAE - Everett, Washington, USA
Distance from station: ESE 42mi, 67km
Updated: Tue, 27-Jun-2017 2:53pm PDT
Clear
Clear
 Wind from SSW
Wind: SSW 12 mph , 19 km/h
Temperature: 64°F , 18°C
Dew Point: 52°F , 11°C
Humidity: 64%
Barometer: 30.03 inHg , 1016.9 hPa
Clouds: Clear
Visibility: 10 miles , 16 km
2017/06/27 21:53 KPAE 272153Z 20010KT 10SM CLR 18/11 A3003 RMK AO2 SLP167 T01830106
 
KORS - Eastsound/Orcas, Washington, USA
Distance from station: NNE 42mi, 68km
Updated: Tue, 27-Jun-2017 3:15pm PDT
Clear
Clear
 Wind from NNW
Wind: NNW 5 mph , 7 km/h
Temperature: 63°F , 17°C
Dew Point: 54°F , 12°C
Humidity: 73%
Barometer: 30.01 inHg , 1016.3 hPa
Clouds: Clear
Visibility: 10 miles , 16 km
2017/06/27 22:15 KORS 272215Z AUTO 34004KT 10SM CLR 17/12 A3001 RMK AO2
KAWO - Arlington Muni, Washington, USA
Distance from station: E 45mi, 72km
Updated: Tue, 27-Jun-2017 2:56pm PDT
Few Clouds
Few Clouds
 Wind from ESE
Wind: ESE 5 mph , 7 km/h
Temperature: 68°F , 20°C
Dew Point: 52°F , 11°C
Humidity: 56%
Barometer: 30.02 inHg , 1016.6 hPa
Clouds: Few Clouds
Visibility: 10 miles , 16 km
Cloud details: Few Clouds 3100 ft
2017/06/27 21:56 KAWO 272156Z AUTO 12004KT 10SM FEW031 20/11 A3002 RMK AO2 SLP168 T02000111
 
KPWT - Bremerton Ntnl, Washington, USA
Distance from station: SSE 46mi, 73km
Updated: Tue, 27-Jun-2017 2:56pm PDT
Few Clouds
Few Clouds
 Wind from W
Wind: W 8 mph , 13 km/h
Temperature: 66°F , 19°C
Dew Point: 54°F , 12°C
Humidity: 64%
Barometer: 30.03 inHg , 1016.9 hPa
Clouds: Few Clouds
Visibility: 10 miles , 16 km
Cloud details: Few Clouds 2200 ft
2017/06/27 21:56 KPWT 272156Z AUTO 27007KT 10SM FEW022 19/12 A3003 RMK AO2 SLP184 T01890117